Time;durP1;ratioP1;P1;durP2;ratioP2;P2;SDS_P1;SDS_P2;PMS_P1;PMS_P2;Temp;Humidity;BMP_temperature;BMP_pressure;BME280_temperature;BME280_humidity;BME280_pressure;Samples;Min_cycle;Max_cycle;Signal;HPM_P1;HPM_P2
2022/06/17 00:00:50;;;;;;;40.03;33.58;;;11.20;99.90;;;;;;5075545;28;20098;-25
2022/06/17 00:03:17;;;;;;;37.58;30.75;;;11.30;99.90;;;;;;5073645;28;20541;-25
2022/06/17 00:05:43;;;;;;;42.45;32.92;;;11.30;99.90;;;;;;5074462;28;20091;-25
2022/06/17 00:08:38;;;;;;;45.58;33.83;;;11.40;99.90;;;;;;5074531;28;20048;-25
2022/06/17 00:11:14;;;;;;;41.53;33.08;;;11.50;99.90;;;;;;5072620;28;20555;-25
2022/06/17 00:13:40;;;;;;;41.70;33.45;;;11.50;99.90;;;;;;5074447;28;20044;-25
2022/06/17 00:16:14;;;;;;;39.65;33.47;;;11.50;99.90;;;;;;5074855;28;20109;-25
2022/06/17 00:18:41;;;;;;;39.03;34.80;;;11.50;99.90;;;;;;5074210;28;20410;-25
2022/06/17 00:21:22;;;;;;;44.30;37.25;;;11.60;99.90;;;;;;5074891;28;20048;-25
2022/06/17 00:23:48;;;;;;;42.45;36.97;;;11.60;99.90;;;;;;5074047;28;20040;-25
2022/06/17 00:26:14;;;;;;;46.75;36.35;;;11.70;99.90;;;;;;5074592;28;20113;-25
2022/06/17 00:28:40;;;;;;;41.28;35.13;;;11.70;99.90;;;;;;5073198;28;20053;-25
2022/06/17 00:31:06;;;;;;;41.95;33.45;;;11.70;99.90;;;;;;5074123;28;20052;-25
2022/06/17 00:33:31;;;;;;;43.85;35.60;;;11.70;99.90;;;;;;5073088;28;20048;-25
2022/06/17 00:35:57;;;;;;;43.90;33.63;;;11.70;99.90;;;;;;5073999;28;20048;-25
2022/06/17 00:38:28;;;;;;;53.95;33.42;;;11.80;99.90;;;;;;5073986;28;20082;-26
2022/06/17 00:40:55;;;;;;;38.42;33.83;;;11.80;99.90;;;;;;5073006;28;20453;-26
2022/06/17 00:43:30;;;;;;;36.15;32.25;;;11.90;99.90;;;;;;5073951;28;20044;-25
2022/06/17 00:46:07;;;;;;;33.97;29.92;;;11.90;99.90;;;;;;5074205;28;20394;-25
2022/06/17 00:48:39;;;;;;;37.88;28.60;;;12.00;99.90;;;;;;5056754;28;20608;-26
2022/06/17 00:51:12;;;;;;;35.75;30.40;;;12.10;99.90;;;;;;5074443;28;20432;-26
2022/06/17 00:53:48;;;;;;;37.63;30.48;;;12.10;99.90;;;;;;5073172;28;20048;-25
2022/06/17 00:56:28;;;;;;;33.05;28.70;;;12.10;99.90;;;;;;5074679;28;20070;-26
2022/06/17 00:59:00;;;;;;;32.42;27.33;;;12.20;99.90;;;;;;5073786;28;20047;-26
2022/06/17 01:01:29;;;;;;;31.52;27.25;;;12.20;99.90;;;;;;5073782;28;20048;-26
2022/06/17 01:03:58;;;;;;;33.92;25.70;;;12.20;99.90;;;;;;5072614;28;20520;-26
2022/06/17 01:06:30;;;;;;;31.45;25.52;;;12.30;99.90;;;;;;5074199;28;20044;-25
2022/06/17 01:12:15;;;;;;;28.55;22.25;;;12.30;99.90;;;;;;5073656;28;20059;-25
2022/06/17 01:14:42;;;;;;;29.25;23.13;;;12.30;99.90;;;;;;5073275;28;20498;-26
2022/06/17 01:17:11;;;;;;;29.92;24.38;;;12.30;99.90;;;;;;5073416;28;20044;-26
2022/06/17 01:19:51;;;;;;;26.40;21.60;;;12.20;99.90;;;;;;5072888;28;20055;-26
2022/06/17 01:22:21;;;;;;;24.60;21.98;;;12.20;99.90;;;;;;5076495;28;20103;-26
2022/06/17 01:24:49;;;;;;;30.35;24.38;;;12.10;99.90;;;;;;5077614;28;20063;-25
2022/06/17 01:27:21;;;;;;;25.70;21.38;;;12.00;99.90;;;;;;5059714;28;20485;-25
2022/06/17 01:29:47;;;;;;;24.17;20.92;;;12.00;99.90;;;;;;5077576;28;20048;-26
2022/06/17 01:32:16;;;;;;;26.65;23.85;;;11.90;99.90;;;;;;5077532;28;20048;-25
2022/06/17 01:34:42;;;;;;;27.25;23.38;;;11.90;99.90;;;;;;5077521;28;20045;-26
2022/06/17 01:37:09;;;;;;;25.65;21.73;;;11.90;99.90;;;;;;5077474;28;20054;-25
2022/06/17 01:39:35;;;;;;;24.45;21.92;;;11.90;99.90;;;;;;5077417;28;20040;-25
2022/06/17 01:42:01;;;;;;;23.65;21.08;;;11.90;99.90;;;;;;5077388;28;20052;-25
2022/06/17 01:44:33;;;;;;;27.23;22.27;;;11.90;99.90;;;;;;5077305;28;20044;-26
2022/06/17 01:47:02;;;;;;;26.58;22.23;;;11.90;99.90;;;;;;5077300;28;20048;-26
2022/06/17 01:49:36;;;;;;;29.70;23.60;;;11.90;99.90;;;;;;5077185;28;20049;-26
2022/06/17 01:52:05;;;;;;;25.92;23.02;;;11.90;99.90;;;;;;5077806;28;20056;-25
2022/06/17 01:54:37;;;;;;;25.95;21.33;;;11.90;99.90;;;;;;5076145;28;20044;-25
2022/06/17 01:57:07;;;;;;;26.10;22.30;;;11.90;99.90;;;;;;5077149;28;20123;-25
2022/06/17 01:59:52;;;;;;;27.13;21.92;;;11.90;99.90;;;;;;5059124;28;20048;-25
2022/06/17 02:02:19;;;;;;;28.17;21.20;;;12.00;99.90;;;;;;5077809;28;20048;-25
2022/06/17 02:04:53;;;;;;;24.17;21.67;;;11.80;99.90;;;;;;5076836;28;20047;-25
2022/06/17 02:07:27;;;;;;;23.67;20.70;;;11.90;99.90;;;;;;5077728;28;20138;-25
2022/06/17 02:09:53;;;;;;;27.23;23.73;;;11.90;99.90;;;;;;5077184;28;20052;-25
2022/06/17 02:12:20;;;;;;;25.02;22.13;;;11.80;99.90;;;;;;5076744;28;20056;-25
2022/06/17 02:14:47;;;;;;;23.80;21.15;;;11.90;99.90;;;;;;5077551;28;20091;-25
2022/06/17 02:17:14;;;;;;;24.77;21.77;;;11.80;99.90;;;;;;5076689;28;20048;-25
2022/06/17 02:19:42;;;;;;;23.75;21.10;;;11.80;99.90;;;;;;5076612;28;20070;-26
2022/06/17 02:22:14;;;;;;;26.58;22.30;;;11.90;99.90;;;;;;5076574;28;20044;-26
2022/06/17 02:24:41;;;;;;;26.42;21.15;;;11.90;99.90;;;;;;5075778;28;20103;-26
2022/06/17 02:27:10;;;;;;;27.00;21.40;;;11.80;99.90;;;;;;5075312;28;20048;-25
2022/06/17 02:29:39;;;;;;;25.73;21.00;;;11.90;99.90;;;;;;5076454;28;20055;-25
2022/06/17 02:32:07;;;;;;;24.50;21.88;;;11.80;99.90;;;;;;5076089;28;20459;-25
2022/06/17 02:34:36;;;;;;;26.65;20.40;;;11.80;99.90;;;;;;5076231;28;20127;-26
2022/06/17 02:37:08;;;;;;;24.50;21.02;;;11.80;99.90;;;;;;5076349;28;20079;-25
2022/06/17 02:39:40;;;;;;;29.85;20.85;;;11.80;99.90;;;;;;5077234;28;20053;-25
2022/06/17 02:42:06;;;;;;;23.23;20.77;;;11.80;99.90;;;;;;5076299;28;20055;-26
2022/06/17 02:44:36;;;;;;;25.67;20.77;;;11.80;99.90;;;;;;5076680;28;20040;-25
2022/06/17 02:47:03;;;;;;;23.50;20.23;;;11.70;99.90;;;;;;5076205;28;20044;-25
2022/06/17 02:49:32;;;;;;;22.63;19.08;;;11.70;99.90;;;;;;5076122;28;20059;-25
2022/06/17 02:52:00;;;;;;;25.60;19.77;;;11.70;99.90;;;;;;5076121;28;20059;-25
2022/06/17 02:54:33;;;;;;;27.92;20.75;;;11.60;99.90;;;;;;5076027;28;20097;-26
2022/06/17 02:57:01;;;;;;;26.50;20.75;;;11.70;99.90;;;;;;5076007;28;20048;-26
2022/06/17 02:59:35;;;;;;;24.80;19.17;;;11.70;99.90;;;;;;5076472;28;20049;-25
2022/06/17 03:02:10;;;;;;;26.23;18.35;;;11.70;99.90;;;;;;5075866;28;20044;-25
2022/06/17 03:04:41;;;;;;;23.23;19.42;;;11.70;99.90;;;;;;5076360;28;20040;-25
2022/06/17 03:07:15;;;;;;;21.98;19.67;;;11.80;99.90;;;;;;5075806;28;20051;-25
2022/06/17 03:09:42;;;;;;;22.73;16.85;;;11.80;99.90;;;;;;5076154;28;20124;-26
2022/06/17 03:12:08;;;;;;;20.55;17.13;;;11.90;99.90;;;;;;5075653;28;20051;-25
2022/06/17 03:14:39;;;;;;;21.75;16.60;;;12.00;99.90;;;;;;5075869;28;20093;-25
2022/06/17 03:17:10;;;;;;;19.83;16.10;;;12.00;99.90;;;;;;5076191;28;20059;-25
2022/06/17 03:19:36;;;;;;;22.23;16.05;;;12.10;99.90;;;;;;5074901;28;20048;-26
2022/06/17 03:22:05;;;;;;;19.05;15.32;;;12.20;99.90;;;;;;5075496;28;20143;-26
2022/06/17 03:24:58;;;;;;;17.63;14.50;;;12.30;99.90;;;;;;5075145;28;20045;-26
2022/06/17 03:27:48;;;;;;;18.63;14.57;;;12.40;99.90;;;;;;5074509;28;20051;-26
2022/06/17 03:30:22;;;;;;;16.85;14.15;;;12.40;99.90;;;;;;5075914;28;20052;-26
2022/06/17 03:32:56;;;;;;;17.25;13.80;;;12.50;99.90;;;;;;5075320;28;20055;-26
2022/06/17 03:35:25;;;;;;;18.05;13.60;;;12.50;99.90;;;;;;5075284;28;20143;-26
2022/06/17 03:37:54;;;;;;;18.13;14.55;;;12.50;47.80;;;;;;5074841;28;20547;-26
2022/06/17 03:40:36;;;;;;;14.57;13.00;;;12.50;1.00;;;;;;5075075;28;20051;-26
2022/06/17 03:43:16;;;;;;;18.52;14.18;;;12.60;1.00;;;;;;5075684;28;20057;-26
2022/06/17 03:46:15;;;;;;;15.38;12.98;;;12.60;1.00;;;;;;5075551;28;20511;-26
2022/06/17 03:48:43;;;;;;;16.10;13.50;;;12.50;1.00;;;;;;5052945;28;20052;-26
2022/06/17 03:51:18;;;;;;;18.00;12.77;;;12.50;1.00;;;;;;5074909;28;20078;-26
2022/06/17 03:53:45;;;;;;;15.38;12.27;;;12.50;1.00;;;;;;5075439;28;20052;-26
2022/06/17 03:56:33;;;;;;;16.55;13.52;;;12.60;1.00;;;;;;5074783;28;20055;-26
2022/06/17 03:59:04;;;;;;;15.60;12.70;;;12.60;1.00;;;;;;5074806;28;20044;-26
2022/06/17 04:01:51;;;;;;;19.50;12.43;;;12.80;1.00;;;;;;5073202;28;20051;-26
2022/06/17 04:04:23;;;;;;;16.90;12.15;;;12.80;1.00;;;;;;5073875;28;20131;-26
2022/06/17 04:06:53;;;;;;;16.70;12.60;;;12.90;99.90;;;;;;5074959;28;20044;-26
2022/06/17 04:09:26;;;;;;;13.05;11.75;;;13.10;99.90;;;;;;5073247;28;20060;-26
2022/06/17 04:12:04;;;;;;;14.32;11.73;;;13.20;99.90;;;;;;5074563;28;20127;-26
2022/06/17 04:14:47;;;;;;;15.02;11.00;;;13.30;99.90;;;;;;5075062;28;20097;-26
2022/06/17 04:17:38;;;;;;;12.30;10.93;;;13.30;99.90;;;;;;5074461;28;20052;-26
2022/06/17 04:20:22;;;;;;;16.15;11.73;;;13.50;99.90;;;;;;5074659;28;20044;-26
2022/06/17 04:22:51;;;;;;;16.00;11.57;;;13.60;99.90;;;;;;5074282;28;20056;-26
2022/06/17 04:25:22;;;;;;;12.75;10.30;;;13.60;99.90;;;;;;5074175;28;20068;-26
2022/06/17 04:27:56;;;;;;;17.30;10.18;;;13.70;99.90;;;;;;5074758;28;20455;-26
2022/06/17 04:30:27;;;;;;;14.45;10.63;;;13.80;99.90;;;;;;5075045;28;20060;-26
2022/06/17 04:32:59;;;;;;;12.70;10.00;;;14.00;99.90;;;;;;5074728;28;20048;-26
2022/06/17 04:35:25;;;;;;;10.05;8.98;;;14.00;99.90;;;;;;5074442;28;20460;-26
2022/06/17 04:37:51;;;;;;;13.40;9.35;;;14.20;99.90;;;;;;5074658;28;20044;-26
2022/06/17 04:40:36;;;;;;;14.52;9.32;;;14.20;97.80;;;;;;5056950;28;20049;-26
2022/06/17 04:43:11;;;;;;;11.20;9.00;;;14.20;58.90;;;;;;5074546;28;20127;-26
2022/06/17 04:45:37;;;;;;;10.13;9.00;;;14.30;42.30;;;;;;5073002;28;20470;-26
2022/06/17 04:48:03;;;;;;;10.88;8.43;;;14.30;26.40;;;;;;5074479;28;20055;-26
2022/06/17 04:50:31;;;;;;;12.93;9.55;;;14.40;24.30;;;;;;5073893;28;20048;-26
2022/06/17 04:52:57;;;;;;;15.20;9.02;;;14.40;35.40;;;;;;5073844;28;20044;-26
2022/06/17 04:55:36;;;;;;;11.15;8.00;;;14.50;26.10;;;;;;5073232;28;20099;-26
2022/06/17 04:58:02;;;;;;;11.63;7.50;;;14.50;1.00;;;;;;5074683;28;20123;-26
2022/06/17 05:00:28;;;;;;;7.90;7.10;;;14.50;1.00;;;;;;5073764;28;20494;-26
2022/06/17 05:02:54;;;;;;;9.23;6.60;;;14.60;1.00;;;;;;5072778;28;20503;-26
2022/06/17 05:05:30;;;;;;;8.73;7.32;;;14.70;1.00;;;;;;5074183;28;20040;-26
2022/06/17 05:07:56;;;;;;;7.97;6.03;;;14.70;1.00;;;;;;5073724;28;20123;-26
2022/06/17 05:10:29;;;;;;;7.10;5.60;;;14.80;1.00;;;;;;5072770;28;20044;-26
2022/06/17 05:13:15;;;;;;;6.38;5.60;;;14.80;99.90;;;;;;5072461;28;20127;-26
2022/06/17 05:15:41;;;;;;;10.13;6.25;;;14.90;99.90;;;;;;5073656;28;20062;-26
2022/06/17 05:18:07;;;;;;;8.63;5.85;;;14.90;99.90;;;;;;5073603;28;20131;-26
2022/06/17 05:20:33;;;;;;;10.13;5.88;;;14.90;99.90;;;;;;5073501;28;20045;-26
2022/06/17 05:23:04;;;;;;;11.50;6.95;;;14.90;99.90;;;;;;5072569;28;20051;-26
2022/06/17 05:25:33;;;;;;;8.40;6.43;;;15.00;99.90;;;;;;5073890;28;20482;-26
2022/06/17 05:27:59;;;;;;;8.45;6.20;;;15.00;99.90;;;;;;5073414;28;20082;-26
2022/06/17 05:30:26;;;;;;;7.78;5.82;;;15.10;99.90;;;;;;5074228;28;20045;-26
2022/06/17 05:32:55;;;;;;;12.52;5.93;;;15.10;99.90;;;;;;5073431;28;20044;-26
2022/06/17 05:35:22;;;;;;;8.73;6.03;;;15.20;99.90;;;;;;5073708;28;20044;-26
2022/06/17 05:37:49;;;;;;;9.80;6.03;;;15.20;99.90;;;;;;5073212;28;20131;-26
2022/06/17 05:40:16;;;;;;;13.27;6.13;;;15.30;99.90;;;;;;5073388;28;20056;-26
2022/06/17 05:42:44;;;;;;;12.18;6.50;;;15.40;99.90;;;;;;5055752;28;20094;-26
2022/06/17 05:45:20;;;;;;;8.07;5.90;;;15.50;99.90;;;;;;5073133;28;20475;-26
2022/06/17 05:47:46;;;;;;;9.30;6.47;;;15.60;99.90;;;;;;5074110;28;20098;-26
2022/06/17 05:50:13;;;;;;;11.25;6.18;;;15.70;99.90;;;;;;5073298;28;20135;-27
2022/06/17 05:53:06;;;;;;;8.63;6.10;;;15.80;99.90;;;;;;5072284;28;20052;-26
2022/06/17 05:55:34;;;;;;;7.68;5.72;;;15.90;99.90;;;;;;5072102;28;20510;-26
2022/06/17 05:58:00;;;;;;;8.95;6.53;;;16.00;99.90;;;;;;5073175;28;20097;-26
2022/06/17 06:00:28;;;;;;;7.65;6.35;;;16.10;99.90;;;;;;5073132;28;20047;-26
2022/06/17 06:02:59;;;;;;;8.95;6.18;;;16.20;99.90;;;;;;5072849;28;20548;-26
2022/06/17 06:05:27;;;;;;;10.40;6.68;;;16.20;99.90;;;;;;5072707;28;20494;-26
2022/06/17 06:07:52;;;;;;;11.43;6.38;;;16.30;99.90;;;;;;5074522;28;20052;-26
2022/06/17 06:10:19;;;;;;;7.35;6.47;;;16.30;99.90;;;;;;5059105;28;20045;-27
2022/06/17 06:12:53;;;;;;;9.60;6.47;;;16.40;99.90;;;;;;5076176;28;20060;-26
2022/06/17 06:15:31;;;;;;;8.98;6.72;;;16.50;99.90;;;;;;5077347;28;20488;-26
2022/06/17 06:17:56;;;;;;;7.40;6.68;;;16.50;99.90;;;;;;5077289;28;20386;-28
2022/06/17 06:20:22;;;;;;;11.05;8.00;;;16.60;99.90;;;;;;5076660;28;20045;-26
2022/06/17 06:22:48;;;;;;;8.80;6.93;;;16.70;99.90;;;;;;5076647;28;20128;-26
2022/06/17 06:25:16;;;;;;;11.27;7.80;;;16.80;99.90;;;;;;5076797;28;20056;-26
2022/06/17 06:27:43;;;;;;;9.35;6.93;;;17.00;99.90;;;;;;5077352;28;20367;-26
2022/06/17 06:30:27;;;;;;;8.32;6.57;;;17.20;99.90;;;;;;5076467;28;20437;-26
2022/06/17 06:32:58;;;;;;;12.50;7.28;;;17.40;92.30;;;;;;5076376;28;20056;-26
2022/06/17 06:35:28;;;;;;;9.48;6.75;;;17.60;95.50;;;;;;5042355;28;20078;-26
2022/06/17 06:37:54;;;;;;;9.88;6.35;;;17.90;62.20;;;;;;5076344;28;20044;-26
2022/06/17 06:40:20;;;;;;;7.85;5.78;;;18.10;33.10;;;;;;5076337;28;20459;-26
2022/06/17 06:42:50;;;;;;;9.77;6.20;;;18.40;1.00;;;;;;5076756;28;20044;-26
2022/06/17 06:45:21;;;;;;;9.38;5.75;;;18.60;1.00;;;;;;5076692;28;20421;-27
2022/06/17 06:47:48;;;;;;;9.93;6.22;;;18.80;1.00;;;;;;5077042;28;20105;-26
2022/06/17 06:50:17;;;;;;;7.95;5.05;;;19.00;1.00;;;;;;5076443;28;20090;-27
2022/06/17 06:52:43;;;;;;;8.40;6.57;;;19.20;1.00;;;;;;5075768;28;20521;-27
2022/06/17 06:55:10;;;;;;;9.48;5.78;;;19.30;99.90;;;;;;5076868;28;20045;-26
2022/06/17 06:57:52;;;;;;;9.43;6.18;;;19.50;99.90;;;;;;5076564;28;20044;-27
2022/06/17 07:00:28;;;;;;;6.70;5.33;;;19.70;99.90;;;;;;5075988;28;20137;-27
2022/06/17 07:02:53;;;;;;;11.68;5.40;;;20.20;99.90;;;;;;5076790;28;20049;-26
2022/06/17 07:05:20;;;;;;;8.52;5.75;;;20.30;99.90;;;;;;5074656;28;20535;-27
2022/06/17 07:07:46;;;;;;;5.68;4.45;;;20.20;99.90;;;;;;5075773;28;20175;-26
2022/06/17 07:10:22;;;;;;;6.60;5.10;;;20.00;99.90;;;;;;5075656;28;20045;-26
2022/06/17 07:12:49;;;;;;;8.10;4.97;;;19.90;99.90;;;;;;5076623;28;20045;-26
2022/06/17 07:15:15;;;;;;;8.40;4.65;;;19.80;99.90;;;;;;5075631;28;20048;-27
2022/06/17 07:17:58;;;;;;;8.45;5.15;;;19.90;99.90;;;;;;5076428;28;20419;-26
2022/06/17 07:20:25;;;;;;;9.30;5.05;;;19.80;99.90;;;;;;5075603;28;20055;-26
2022/06/17 07:22:51;;;;;;;10.15;5.18;;;20.00;99.90;;;;;;5076092;28;20052;-26
2022/06/17 07:25:19;;;;;;;7.07;5.10;;;20.10;99.90;;;;;;5075663;28;20060;-26
2022/06/17 07:27:44;;;;;;;8.38;5.15;;;20.30;99.90;;;;;;5075419;28;20048;-26
2022/06/17 07:30:16;;;;;;;8.65;5.20;;;20.40;99.90;;;;;;5075978;28;20048;-26
2022/06/17 07:32:42;;;;;;;9.77;5.68;;;20.60;99.90;;;;;;5074402;28;20095;-26
2022/06/17 07:35:09;;;;;;;6.97;5.00;;;20.70;99.90;;;;;;5075257;28;20080;-27
2022/06/17 07:40:19;;;;;;;8.52;5.07;;;21.20;96.70;;;;;;5075763;28;20051;-26
2022/06/17 07:42:45;;;;;;;8.43;5.20;;;21.40;44.00;;;;;;5075083;28;20044;-27
2022/06/17 07:45:15;;;;;;;7.00;5.03;;;21.40;1.00;;;;;;5075807;28;20036;-26
2022/06/17 07:47:42;;;;;;;9.43;5.10;;;21.40;1.00;;;;;;5075281;28;20040;-27
2022/06/17 07:50:12;;;;;;;7.70;4.90;;;21.40;1.00;;;;;;5074967;28;20066;-26
2022/06/17 07:52:38;;;;;;;5.45;4.57;;;21.40;1.00;;;;;;5075186;28;20091;-27
2022/06/17 07:55:05;;;;;;;12.27;5.85;;;21.30;1.00;;;;;;5074870;28;20041;-27
2022/06/17 07:57:31;;;;;;;8.88;6.00;;;21.20;1.00;;;;;;5074875;28;20083;-26
2022/06/17 07:59:57;;;;;;;8.57;5.88;;;21.30;1.00;;;;;;5073818;28;20079;-26
2022/06/17 08:02:23;;;;;;;8.77;5.78;;;21.40;1.00;;;;;;5074737;28;20090;-26
2022/06/17 08:04:48;;;;;;;7.38;5.07;;;21.40;1.00;;;;;;5074581;28;20048;-27
2022/06/17 08:07:15;;;;;;;10.75;5.85;;;21.30;1.00;;;;;;5074576;28;20053;-26
2022/06/17 08:09:41;;;;;;;12.02;6.82;;;21.20;1.00;;;;;;5074481;28;20044;-27
2022/06/17 08:12:11;;;;;;;10.55;6.18;;;21.10;1.00;;;;;;5074587;28;20127;-26
2022/06/17 08:14:43;;;;;;;10.55;6.68;;;21.10;1.00;;;;;;5075070;28;20040;-26
2022/06/17 08:17:12;;;;;;;9.07;5.77;;;21.40;1.00;;;;;;5075081;28;20049;-27
2022/06/17 08:19:38;;;;;;;10.20;6.07;;;22.10;1.00;;;;;;5074391;28;20363;-27
2022/06/17 08:22:04;;;;;;;7.72;5.82;;;22.50;99.90;;;;;;5074369;28;20135;-27
2022/06/17 08:24:30;;;;;;;11.77;5.45;;;22.90;99.90;;;;;;5073989;28;20119;-27
2022/06/17 08:26:55;;;;;;;11.73;5.72;;;23.30;99.90;;;;;;5039997;28;20056;-27
2022/06/17 08:29:22;;;;;;;11.95;5.65;;;23.40;99.90;;;;;;5057413;28;20052;-26
2022/06/17 08:31:48;;;;;;;7.95;5.13;;;23.40;99.90;;;;;;5072356;28;20057;-27
2022/06/17 08:34:13;;;;;;;9.60;6.05;;;23.20;99.90;;;;;;5074702;28;20496;-27
2022/06/17 08:36:40;;;;;;;13.55;5.80;;;23.20;99.90;;;;;;5074604;28;20040;-28
2022/06/17 08:39:10;;;;;;;12.48;5.72;;;23.10;99.90;;;;;;5074047;28;20052;-26
2022/06/17 08:42:04;;;;;;;10.30;4.85;;;23.00;99.90;;;;;;5057217;28;20131;-27
2022/06/17 08:45:09;;;;;;;39.95;10.73;;;22.80;99.90;;;;;;5073459;28;20139;-27
2022/06/17 08:47:53;;;;;;;8.18;4.90;;;22.60;99.90;;;;;;5074134;28;20090;-27
2022/06/17 08:50:59;;;;;;;15.00;6.20;;;22.40;99.90;;;;;;5073206;28;20052;-27
2022/06/17 08:53:43;;;;;;;10.23;5.43;;;22.20;99.90;;;;;;5073071;28;20102;-27
2022/06/17 08:56:23;;;;;;;14.00;5.18;;;22.00;99.90;;;;;;5074315;28;20359;-27
2022/06/17 08:59:01;;;;;;;6.40;3.92;;;22.00;99.90;;;;;;5073836;28;20044;-27
2022/06/17 09:01:43;;;;;;;10.32;4.70;;;22.00;99.90;;;;;;5073603;28;20487;-27
2022/06/17 09:04:21;;;;;;;8.55;4.32;;;22.20;99.90;;;;;;5073559;28;20056;-26
2022/06/17 09:07:03;;;;;;;8.15;5.10;;;22.50;99.90;;;;;;5072658;28;20063;-27
2022/06/17 09:10:11;;;;;;;15.75;7.13;;;22.50;99.90;;;;;;5074407;28;20048;-28
2022/06/17 09:13:20;;;;;;;9.63;5.25;;;22.50;99.90;;;;;;5066248;28;20053;-27
2022/06/17 09:15:52;;;;;;;10.32;4.63;;;22.50;99.90;;;;;;5072630;28;20048;-27
2022/06/17 09:18:20;;;;;;;10.25;4.18;;;22.50;99.90;;;;;;5072956;28;20099;-27
2022/06/17 09:20:50;;;;;;;8.60;4.68;;;22.50;99.90;;;;;;5073416;28;20044;-27
2022/06/17 09:23:19;;;;;;;13.18;5.03;;;22.40;99.90;;;;;;5073526;28;20056;-27
2022/06/17 09:25:47;;;;;;;10.63;4.78;;;22.50;99.90;;;;;;5073846;28;20132;-26
2022/06/17 09:28:19;;;;;;;9.45;5.32;;;22.80;99.90;;;;;;5073440;28;20048;-27
2022/06/17 09:30:54;;;;;;;5.53;4.20;;;23.30;99.90;;;;;;5074329;28;20044;-27
2022/06/17 09:33:33;;;;;;;8.25;4.35;;;24.10;99.90;;;;;;5073465;28;20052;-27
2022/06/17 09:36:10;;;;;;;5.00;3.97;;;24.80;50.00;;;;;;5073493;28;20107;-27
2022/06/17 09:38:45;;;;;;;7.38;4.50;;;25.30;11.00;;;;;;5073965;28;20048;-27
2022/06/17 09:41:17;;;;;;;9.50;4.45;;;25.40;56.40;;;;;;5074193;28;20375;-27
2022/06/17 09:43:50;;;;;;;;;;;25.30;1.00;;;;;;5043398;28;20062;-27
2022/06/17 09:46:37;;;;;;;9.35;4.70;;;24.90;1.00;;;;;;5077170;28;20013;-27
2022/06/17 09:49:29;;;;;;;8.13;4.00;;;24.20;43.30;;;;;;5077763;28;20060;-27
2022/06/17 09:52:05;;;;;;;6.68;3.50;;;23.80;99.90;;;;;;5077060;28;20131;-27
2022/06/17 09:54:40;;;;;;;5.05;3.58;;;23.70;99.90;;;;;;5076078;28;20052;-27
2022/06/17 09:57:12;;;;;;;5.82;3.20;;;23.50;98.70;;;;;;5077853;28;20079;-27
2022/06/17 09:59:43;;;;;;;7.30;3.70;;;23.30;99.90;;;;;;5076307;28;20052;-27
2022/06/17 10:02:21;;;;;;;7.78;4.68;;;23.30;99.90;;;;;;5077525;28;20124;-27
2022/06/17 10:04:47;;;;;;;8.48;3.80;;;23.30;99.90;;;;;;5076733;28;20493;-27
2022/06/17 10:07:29;;;;;;;10.43;4.10;;;23.40;99.90;;;;;;5076802;28;20483;-26
2022/06/17 10:10:01;;;;;;;6.07;3.67;;;23.40;99.90;;;;;;5077060;28;20396;-26
2022/06/17 10:12:45;;;;;;;6.17;3.90;;;23.30;99.90;;;;;;5076830;28;20344;-27
2022/06/17 10:15:24;;;;;;;7.63;3.58;;;23.30;99.90;;;;;;5076736;28;20127;-27
2022/06/17 10:18:34;;;;;;;7.60;4.43;;;23.30;99.90;;;;;;5075464;28;20052;-27
2022/06/17 10:21:12;;;;;;;7.03;4.47;;;23.40;99.90;;;;;;5077110;28;20056;-27
2022/06/17 10:24:05;;;;;;;7.07;3.50;;;23.40;99.90;;;;;;5076332;28;20481;-27
2022/06/17 10:26:31;;;;;;;5.93;3.80;;;23.50;99.90;;;;;;5058381;28;20088;-26
2022/06/17 10:29:07;;;;;;;5.65;3.63;;;23.60;99.90;;;;;;5059705;28;20088;-27
2022/06/17 10:31:45;;;;;;;6.00;3.53;;;23.60;99.90;;;;;;5077336;28;20045;-27
2022/06/17 10:34:21;;;;;;;10.45;4.10;;;23.80;99.90;;;;;;5077350;28;20429;-27
2022/06/17 10:36:52;;;;;;;9.57;3.63;;;24.00;99.90;;;;;;5076686;28;20102;-27
2022/06/17 10:39:19;;;;;;;5.75;3.75;;;24.30;99.90;;;;;;5076001;28;20063;-27
2022/06/17 10:41:46;;;;;;;6.93;3.53;;;24.60;80.90;;;;;;5076004;28;20102;-28
2022/06/17 10:44:14;;;;;;;8.27;3.85;;;24.90;10.90;;;;;;5076058;28;20044;-27
2022/06/17 10:47:01;;;;;;;10.32;4.13;;;25.20;71.90;;;;;;5076165;28;20048;-28
2022/06/17 10:49:40;;;;;;;6.18;4.03;;;25.30;1.00;;;;;;5077010;28;20374;-27
2022/06/17 10:52:16;;;;;;;5.68;3.83;;;25.30;1.00;;;;;;5076656;28;20128;-27
2022/06/17 10:54:43;;;;;;;7.43;5.07;;;25.20;1.00;;;;;;5075724;28;20040;-27
2022/06/17 10:57:21;;;;;;;6.70;5.10;;;25.10;1.00;;;;;;5074872;28;20139;-28
2022/06/17 10:59:46;;;;;;;9.23;5.68;;;25.00;1.00;;;;;;5075884;28;20098;-27
2022/06/17 11:02:21;;;;;;;8.05;5.63;;;25.00;1.00;;;;;;5076494;28;20045;-27
2022/06/17 11:04:54;;;;;;;10.63;5.70;;;25.30;1.00;;;;;;5075722;28;20094;-27
2022/06/17 11:07:27;;;;;;;11.30;6.65;;;25.40;1.00;;;;;;5075654;28;20475;-27
2022/06/17 11:09:57;;;;;;;9.27;5.57;;;25.50;1.00;;;;;;5075701;28;20490;-27
2022/06/17 11:12:30;;;;;;;8.32;5.25;;;25.50;1.00;;;;;;5075725;28;20101;-27
2022/06/17 11:15:03;;;;;;;9.90;5.63;;;25.50;1.00;;;;;;5075735;28;20045;-27
2022/06/17 11:17:34;;;;;;;10.20;5.00;;;26.20;1.00;;;;;;5075569;28;20135;-27
2022/06/17 11:20:17;;;;;;;9.88;5.70;;;26.80;1.00;;;;;;5075588;28;20048;-28
2022/06/17 11:22:50;;;;;;;7.43;5.68;;;26.80;1.00;;;;;;5075550;28;20514;-27
2022/06/17 11:25:21;;;;;;;10.63;5.20;;;26.50;1.00;;;;;;5075086;28;20144;-27
2022/06/17 11:27:59;;;;;;;6.78;4.95;;;26.50;1.00;;;;;;5076307;28;20055;-28
2022/06/17 11:30:34;;;;;;;8.68;4.95;;;26.60;1.00;;;;;;5074695;28;20052;-27
2022/06/17 11:33:01;;;;;;;8.43;3.72;;;26.80;1.00;;;;;;5075391;28;20084;-28
2022/06/17 11:35:32;;;;;;;6.75;4.68;;;27.00;1.00;;;;;;5041715;28;20383;-27
2022/06/17 11:37:58;;;;;;;10.65;4.18;;;26.90;1.00;;;;;;5075134;28;20548;-27
2022/06/17 11:40:27;;;;;;;8.73;4.70;;;26.60;1.00;;;;;;5075157;28;20048;-27
2022/06/17 11:43:06;;;;;;;10.77;4.03;;;26.70;1.00;;;;;;5075717;28;20085;-27
2022/06/17 11:45:42;;;;;;;6.85;3.63;;;26.60;1.00;;;;;;5075069;28;20040;-28
2022/06/17 11:48:15;;;;;;;9.85;3.67;;;26.50;1.00;;;;;;5075656;28;20040;-27
2022/06/17 11:51:04;;;;;;;7.18;3.67;;;26.40;1.00;;;;;;5075035;28;20049;-27
2022/06/17 11:53:31;;;;;;;5.72;3.67;;;26.80;1.00;;;;;;5058156;28;20185;-28
2022/06/17 11:55:58;;;;;;;7.63;3.22;;;27.20;1.00;;;;;;5074680;28;20566;-28
2022/06/17 11:58:24;;;;;;;7.72;3.25;;;27.90;99.90;;;;;;5074804;28;20048;-28
2022/06/17 12:00:55;;;;;;;6.80;3.45;;;28.40;99.90;;;;;;5073654;28;20055;-27
2022/06/17 12:03:32;;;;;;;7.87;4.10;;;28.40;99.90;;;;;;5075356;28;20075;-28
2022/06/17 12:06:05;;;;;;;6.93;3.35;;;28.70;99.90;;;;;;5074519;28;20294;-27
2022/06/17 12:08:48;;;;;;;6.30;3.72;;;28.80;99.90;;;;;;5074587;28;20044;-28
2022/06/17 12:11:20;;;;;;;10.52;3.88;;;29.20;99.90;;;;;;5074533;28;20045;-28
2022/06/17 12:13:51;;;;;;;5.15;3.15;;;29.10;99.90;;;;;;5074676;28;20041;-27
2022/06/17 12:16:23;;;;;;;6.23;2.87;;;29.10;99.90;;;;;;5074548;28;20045;-27
2022/06/17 12:18:56;;;;;;;6.40;3.67;;;29.00;99.90;;;;;;5074426;28;20509;-27
2022/06/17 12:21:48;;;;;;;6.82;2.63;;;29.10;99.90;;;;;;5074272;28;20135;-28
2022/06/17 12:24:42;;;;;;;7.13;2.83;;;29.30;99.90;;;;;;5073626;28;20055;-27
2022/06/17 12:27:46;;;;;;;4.75;2.50;;;29.20;99.90;;;;;;5073164;28;20508;-28
2022/06/17 12:30:12;;;;;;;7.25;2.80;;;29.30;99.90;;;;;;5074853;28;20098;-27
2022/06/17 12:32:59;;;;;;;6.70;3.10;;;29.00;99.90;;;;;;5074144;28;20453;-28
2022/06/17 12:35:36;;;;;;;3.63;2.58;;;28.80;99.90;;;;;;5073946;28;20486;-27
2022/06/17 12:38:05;;;;;;;5.10;2.80;;;28.90;99.90;;;;;;5074089;28;20101;-27
2022/06/17 12:40:45;;;;;;;4.43;2.17;;;29.00;99.90;;;;;;5074057;28;20099;-27
2022/06/17 12:43:25;;;;;;;6.72;2.55;;;28.60;99.90;;;;;;5074364;28;20471;-29
2022/06/17 12:45:59;;;;;;;6.13;2.50;;;27.90;99.90;;;;;;5073649;28;20040;-28
2022/06/17 12:48:41;;;;;;;4.03;1.98;;;27.70;99.90;;;;;;5074574;28;20052;-27
2022/06/17 12:54:19;;;;;;;4.97;2.60;;;28.00;99.90;;;;;;5073870;28;20048;-27
2022/06/17 12:57:11;;;;;;;4.70;2.20;;;28.00;99.90;;;;;;5073303;28;20045;-28
2022/06/17 12:59:55;;;;;;;5.35;2.67;;;27.80;99.90;;;;;;5073769;28;20045;-28
2022/06/17 13:02:57;;;;;;;5.18;2.35;;;27.60;99.90;;;;;;5074510;28;20088;-27
2022/06/17 13:05:31;;;;;;;7.10;2.20;;;27.40;99.90;;;;;;5073940;28;20044;-27
2022/06/17 13:08:39;;;;;;;3.13;2.35;;;27.20;99.90;;;;;;5074191;28;20093;-27
2022/06/17 13:11:05;;;;;;;7.72;2.63;;;26.90;99.90;;;;;;5070318;28;20402;-27
2022/06/17 13:14:03;;;;;;;7.75;2.80;;;26.60;99.90;;;;;;5072409;28;20048;-27
2022/06/17 13:17:01;;;;;;;4.32;2.20;;;26.60;99.90;;;;;;5073489;28;20052;-27
2022/06/17 13:19:45;;;;;;;6.47;2.38;;;26.70;99.90;;;;;;5065974;28;20052;-28